Terminal Aerodrome Forecast
Issued by NWS Huntsville, AL

Home | Current Version | Previous Version | Text Only | Print | Product List | Glossary On
Versions: 1 2 3 4 5 6 7 8 9 10 11 12 13 14 15 16 17 18 19 20 21 22 23 24 25 26 27 28 29 30 31 32 33
000
FTUS44 KHUN 032321
TAFMSL
TAF
KMSL 032321Z 0400/0424 32010KT P6SM SCT050 BKN070
     FM040400 VRB03KT P6SM FEW060
     FM041500 29012G20KT P6SM SCT050
     FM042100 28018G25KT P6SM BKN040 OVC100=

USA.gov is the U.S. government's official web portal to all federal, state and local government web resources and services.